Airfield :
LOGIN :

Register | Disclaimer

   EN    FR    IT 

 










Legend :    VFR   Marginal VFR   IFR   Intensive IFR   Very Intensive IFR
Visi :
Ceiling :
>= 8 km
>= 3000ft
5 to 8 km
1000 to 3000 ft
1500m to 5 km
500 to 1000 ft
800 to 1500m
200 to 500 ft
< 800m
< 200 ft
Symbols :   Thunderstorms  Fog  Heavy snow  Heavy precipitations  Wind > 20 kt
SIGMETs :     Misc.  Thunderstorms  Icing  Turbulence  Mountain Waves  Volcanic Ashes







- Airport Elevation : 648 ft
- IATA code : INI


LYNI - Nis Constantine

CURRENT METAR :
  • 191000Z VRB01KT 3500 BR BKN008 OVC013 M01/M03 Q1029 R11/1///94 NOSIG

EXPIRED METARs :
  • 190930Z 30003KT 4500 BR BKN010 OVC017 M01/M03 Q1030 R11/1///94 NOSIG
  • 190900Z 31003KT 280V340 5000 BR BKN010 OVC017 M01/M04 Q1030 R11/1///94 NOSIG
  • 190830Z 33005KT 5000 BR SCT013 OVC020 M01/M04 Q1030 R11/1///94 NOSIG
  • 190800Z VRB05KT 5000 BR BKN013 OVC020 M01/M04 Q1030 R11/1///94 NOSIG
  • 190730Z 33004KT 300V010 5000 BR BKN013 OVC020 M02/M04 Q1030 R11/1///94 NOSIG

TAF COR TAF LYNI
Valid from the 19 at 06:00 until the 20 at 06:00 UTC


190500Z 1906/2006 31008KT 6000 BKN010 OVC027 TX00/1913Z TNM05/2006Z
TEMPO 1906/1909 4000 -SN BR
BECMG 1918/1921 3000 BR SCT030
TEMPO 2003/2006 1500 BKN010
No reported NOTAMs for that airfield.



MET'MAP, your aeronautical weather chart ! - Copyright ORBIFLY December 2007 - Disclaimer

ORBIFLY MET'MAP TEAM :

Programming & Development : Alexandra Zaïnal
Concept & Development : Baudouin d'Aumeries
Co-Development & Prog : Marc-Olivier Méhu
Technical & hardware support : Manuel Goepfert

Contact : metmap@orbifly.com




SOURCES & CREDITS :

   NOAA